Port Jefferson Station, New York
Current Conditions -  °F | °C
As of 11:56 AM on Tuesday 21 Oct 2014 (Local Time) from KISP Reporting Station
Broken Clouds Broken Clouds  
Wind Chill: 19°   Ceiling: 25000
Heat Index: 19°   Visibility: 10mi
Dew Point: 10°   Wind: 14mph
Humidity: 56%   Direction: 130°SE
Pressure: 29.88"   Gusts: NA
Location:  40.93°N, 73.05°W
Report Text: KISP 211556Z 13012KT 10SM FEW050 SCT070 BKN250 19/10 A2988 RMK AO2 SLP117 T01890100
Loading
Personal Weather Stations






























Interactive Weather Map
Tropical Storm Tracking
New forecast layout! Learn more

10-Day Weather Forecast

Advertisements
Track Severe Weather on mobile